Wetterdaten der Wetterstation 31177 Harsum

Letzte Wetterlage 27.01.2015 10:58
Wetterdiagramm
Tabellarische Darstellung
Datum Temperatur Windchill Feuchte Luftdruck Windrichtung Windstärke Niederschlag
27.01.2015 10:58 3,4 °C 3,4 °C 98 % 1015,1 hPa 203 1.5 0,00 mm
27.01.2015 10:37 3,1 °C 3,1 °C 98 % 1015,1 hPa 113 0.9 0,00 mm
27.01.2015 10:16 3,0 °C 3,0 °C 98 % 1015,1 hPa 180 1.5 1,10 mm
27.01.2015 09:56 2,6 °C 2,6 °C 98 % 1015,1 hPa 248 0.7 1,10 mm
27.01.2015 09:35 2,4 °C 2,4 °C 98 % 1014,1 hPa 203 0.6 1,10 mm
27.01.2015 09:14 2,2 °C 2,2 °C 98 % 1015,1 hPa 180 1.3 0,00 mm
27.01.2015 08:54 2,5 °C 1,1 °C 98 % 1015,1 hPa 158 2.2 0,00 mm
27.01.2015 08:33 2,4 °C 2,4 °C 98 % 1015,1 hPa 180 1.3 0,00 mm
27.01.2015 08:13 2,3 °C 2,3 °C 98 % 1014,1 hPa 180 1.4 0,00 mm
27.01.2015 07:52 2,4 °C 2,4 °C 98 % 1014,1 hPa 180 1.4 0,00 mm
27.01.2015 07:32 2,4 °C 2,4 °C 98 % 1014,1 hPa 180 1.4 0,00 mm
27.01.2015 07:11 2,0 °C 2,0 °C 98 % 1014,0 hPa 180 1.2 0,00 mm
27.01.2015 06:51 2,1 °C 2,1 °C 98 % 1013,1 hPa 180 1.6 1,00 mm
27.01.2015 06:30 2,4 °C 2,4 °C 98 % 1013,1 hPa 180 1.2 1,00 mm
27.01.2015 06:10 2,6 °C 2,6 °C 98 % 1013,1 hPa 180 1.4 1,00 mm
27.01.2015 05:49 2,7 °C 2,7 °C 98 % 1013,1 hPa 180 1.4 0,00 mm
27.01.2015 05:29 2,7 °C 2,7 °C 98 % 1013,1 hPa 180 1.4 0,00 mm
27.01.2015 05:08 2,7 °C 2,7 °C 98 % 1012,1 hPa 180 1.4 1,00 mm
27.01.2015 04:48 2,7 °C 2,7 °C 98 % 1012,2 hPa 180 1.6 1,00 mm
27.01.2015 04:27 2,8 °C 2,8 °C 98 % 1013,1 hPa 180 1.6 0,00 mm
27.01.2015 04:07 2,9 °C 2,9 °C 98 % 1013,1 hPa 180 1.9 0,00 mm
27.01.2015 03:47 3,0 °C 3,0 °C 98 % 1013,3 hPa 180 1.7 0,00 mm
27.01.2015 03:27 3,1 °C 3,1 °C 98 % 1013,1 hPa 203 1.0 0,00 mm
27.01.2015 03:06 3,2 °C 3,2 °C 98 % 1013,1 hPa 180 1.5 0,00 mm
27.01.2015 02:45 3,2 °C 3,2 °C 98 % 1013,1 hPa 180 1.5 0,00 mm
Neue Wetterwarnung

Neue Niederschlagsmeldung
Neue Meldung
Regen Liveticker
    sehr starker Regen/Gewitter
    starker Regen/Gewitter
    mäßiger bis starker Regen
    mäßiger Regen
    leichter bis mäßiger Regen
    kein Regen
    Empfehlen Sie wetter.com